createdAt,value
2019-05-02T00:01:08.443Z,51.18
2019-05-02T00:03:41.043Z,53.65
2019-05-02T00:06:09.327Z,48.60
2019-05-02T00:08:38.972Z,49.58
2019-05-02T00:11:09.595Z,53.42
2019-05-02T00:13:39.013Z,53.15
2019-05-02T00:16:09.118Z,50.17
2019-05-02T00:18:39.578Z,52.07
2019-05-02T00:21:09.389Z,42.95
2019-05-02T00:23:38.741Z,54.15
2019-05-02T00:26:08.127Z,52.53
2019-05-02T00:28:37.401Z,53.50
2019-05-02T00:31:07.403Z,49.93
2019-05-02T00:33:37.666Z,59.85
2019-05-02T00:36:06.858Z,54.60
2019-05-02T00:38:38.355Z,53.35
2019-05-02T00:41:07.214Z,53.60
2019-05-02T00:43:36.542Z,54.75
2019-05-02T00:46:05.880Z,57.88
2019-05-02T00:48:39.711Z,56.85
2019-05-02T00:51:09.137Z,58.60
2019-05-02T00:53:38.741Z,53.70
2019-05-02T00:56:09.042Z,61.48
2019-05-02T00:58:39.116Z,54.98
2019-05-02T01:01:16.283Z,66.15
2019-05-02T01:03:51.917Z,58.23
2019-05-02T01:06:18.157Z,58.17
2019-05-02T01:08:47.401Z,55.65
2019-05-02T01:11:16.870Z,57.67
2019-05-02T01:13:50.458Z,55.43
2019-05-02T01:16:36.441Z,57.25
2019-05-02T01:19:05.938Z,55.35
2019-05-02T01:21:38.794Z,57.55
2019-05-02T01:24:06.099Z,55.17
2019-05-02T01:26:43.232Z,59.40
2019-05-02T01:29:20.103Z,55.85
2019-05-02T01:32:00.180Z,54.90
2019-05-02T01:34:31.034Z,54.25
2019-05-02T01:37:12.413Z,61.40
2019-05-02T01:39:42.680Z,53.08
2019-05-02T01:42:09.862Z,59.60
2019-05-02T01:44:39.256Z,59.67
2019-05-02T01:47:08.558Z,62.98
2019-05-02T01:49:38.137Z,61.75
2019-05-02T01:52:07.392Z,63.75
2019-05-02T01:54:40.799Z,72.95
2019-05-02T01:57:08.693Z,63.35
2019-05-02T01:59:39.052Z,57.35
2019-05-02T02:02:08.829Z,59.27
2019-05-02T02:04:38.120Z,60.20
2019-05-02T02:07:07.396Z,66.17
2019-05-02T02:09:38.912Z,67.05
2019-05-02T02:12:09.699Z,69.95
2019-05-02T02:14:38.718Z,64.22
2019-05-02T02:17:10.168Z,65.35
2019-05-02T02:19:40.773Z,65.40
2019-05-02T02:22:17.269Z,65.15
2019-05-02T02:24:48.084Z,68.87
2019-05-02T02:27:19.955Z,70.65
2019-05-02T02:29:48.459Z,70.65
2019-05-02T02:32:20.335Z,71.57
2019-05-02T02:34:48.672Z,71.22
2019-05-02T02:37:17.867Z,70.10
2019-05-02T02:39:48.517Z,69.22
2019-05-02T02:42:18.062Z,68.25
2019-05-02T02:44:48.941Z,80.05
2019-05-02T02:47:21.074Z,72.65
2019-05-02T02:49:49.189Z,74.50
2019-05-02T02:52:18.490Z,71.97
2019-05-02T02:54:47.703Z,69.05
2019-05-02T02:57:25.646Z,74.40
2019-05-02T02:59:48.013Z,75.03
2019-05-02T03:02:17.348Z,78.45
2019-05-02T03:04:46.745Z,77.92
2019-05-02T03:07:24.040Z,81.20
2019-05-02T03:09:47.158Z,82.60
2019-05-02T03:12:20.955Z,84.17
2019-05-02T03:14:51.789Z,77.70
2019-05-02T03:17:25.982Z,81.02
2019-05-02T03:19:54.499Z,72.03
2019-05-02T03:22:22.989Z,75.08
2019-05-02T03:24:52.340Z,72.00
2019-05-02T03:27:21.722Z,71.00
2019-05-02T03:29:51.100Z,81.60
2019-05-02T03:32:31.391Z,85.67
2019-05-02T03:34:53.618Z,81.08
2019-05-02T03:37:22.776Z,79.42
2019-05-02T03:39:57.226Z,84.35
2019-05-02T03:42:23.231Z,76.57
2019-05-02T03:44:56.028Z,84.03
2019-05-02T03:47:24.467Z,80.53
2019-05-02T03:49:53.656Z,84.22
2019-05-02T03:52:23.082Z,73.35
2019-05-02T03:54:52.840Z,79.42
2019-05-02T03:57:32.431Z,86.37
2019-05-02T03:59:54.647Z,93.00
2019-05-02T04:02:24.457Z,78.45
2019-05-02T04:05:00.313Z,81.28
2019-05-02T04:07:26.517Z,81.57
2019-05-02T04:09:56.683Z,76.95
2019-05-02T04:12:26.803Z,85.38
2019-05-02T04:14:57.447Z,78.72
2019-05-02T04:17:29.132Z,79.77
2019-05-02T04:19:58.778Z,96.20
2019-05-02T04:22:28.866Z,91.42
2019-05-02T04:24:58.824Z,89.30
2019-05-02T04:27:34.229Z,88.07
2019-05-02T04:30:09.762Z,84.42
2019-05-02T04:32:32.410Z,89.47
2019-05-02T04:35:02.417Z,95.25
2019-05-02T04:37:34.402Z,90.60
2019-05-02T04:40:09.080Z,88.15
2019-05-02T04:42:39.358Z,86.95
2019-05-02T04:45:23.999Z,84.25
2019-05-02T04:47:42.571Z,81.42
2019-05-02T04:50:17.828Z,79.27
2019-05-02T04:52:48.364Z,74.87
2019-05-02T04:55:26.122Z,78.25
2019-05-02T04:57:50.852Z,80.72
2019-05-02T05:00:22.372Z,86.65
2019-05-02T05:02:53.230Z,81.02
2019-05-02T05:05:25.541Z,90.72
2019-05-02T05:07:55.375Z,83.17
2019-05-02T05:10:27.685Z,80.00
2019-05-02T05:12:57.200Z,74.53
2019-05-02T05:15:37.145Z,76.57
2019-05-02T05:17:58.890Z,82.30
2019-05-02T05:20:28.901Z,77.55
2019-05-02T05:22:58.916Z,77.80
2019-05-02T05:25:39.737Z,79.07
2019-05-02T05:28:10.018Z,84.00
2019-05-02T05:30:45.278Z,84.17
2019-05-02T05:33:11.959Z,81.30
2019-05-02T05:35:43.341Z,78.30
2019-05-02T05:40:43.538Z,77.15
2019-05-02T05:43:15.728Z,85.55
2019-05-02T05:45:53.834Z,77.50
2019-05-02T05:48:18.390Z,74.97
2019-05-02T05:50:48.476Z,88.67
2019-05-02T05:53:21.350Z,76.45
2019-05-02T05:55:53.496Z,77.10
2019-05-02T05:58:22.489Z,73.83
2019-05-02T06:00:55.419Z,78.90
2019-05-02T06:03:24.225Z,84.03
2019-05-02T06:05:53.904Z,85.67
2019-05-02T06:08:24.504Z,84.67
2019-05-02T06:10:54.640Z,86.22
2019-05-02T06:13:24.831Z,76.97
2019-05-02T06:16:01.958Z,90.32
2019-05-02T06:18:28.420Z,89.32
2019-05-02T06:21:03.344Z,79.80
2019-05-02T06:23:31.061Z,91.72
2019-05-02T06:26:07.952Z,93.62
2019-05-02T06:28:36.179Z,94.37
2019-05-02T06:31:07.215Z,92.90
2019-05-02T06:33:38.081Z,92.60
2019-05-02T06:36:08.664Z,82.00
2019-05-02T06:38:38.880Z,95.17
2019-05-02T06:41:09.231Z,88.85
2019-05-02T06:43:41.092Z,87.97
2019-05-02T06:46:16.473Z,91.47
2019-05-02T06:48:48.156Z,95.22
2019-05-02T06:51:19.548Z,92.78
2019-05-02T06:53:48.990Z,100.87
2019-05-02T06:56:19.166Z,91.17
2019-05-02T06:58:49.738Z,90.42
2019-05-02T07:01:21.313Z,96.75
2019-05-02T07:03:51.970Z,104.60
2019-05-02T07:06:22.657Z,98.62
2019-05-02T07:08:52.907Z,118.82
2019-05-02T07:11:23.521Z,107.78
2019-05-02T07:13:53.743Z,105.87
2019-05-02T07:16:38.469Z,112.50
2019-05-02T07:19:27.410Z,98.35
2019-05-02T07:21:58.560Z,102.47
2019-05-02T07:24:30.582Z,94.67
2019-05-02T07:27:02.184Z,104.85
2019-05-02T07:32:01.378Z,114.62
2019-05-02T07:34:31.230Z,102.40
2019-05-02T07:37:01.711Z,101.42
2019-05-02T07:39:36.141Z,102.25
2019-05-02T07:42:05.759Z,93.20
2019-05-02T07:44:35.590Z,92.65
2019-05-02T07:47:05.683Z,98.07
2019-05-02T07:49:35.676Z,102.55
2019-05-02T07:52:05.954Z,86.20
2019-05-02T07:54:36.022Z,96.72
2019-05-02T07:57:06.006Z,93.12
2019-05-02T07:59:36.090Z,93.30
2019-05-02T08:02:06.092Z,90.35
2019-05-02T08:04:36.344Z,90.50
2019-05-02T08:07:06.663Z,93.15
2019-05-02T08:09:39.300Z,91.53
2019-05-02T08:12:09.137Z,85.47
2019-05-02T08:14:39.214Z,84.17
2019-05-02T08:17:16.109Z,90.87
2019-05-02T08:19:41.771Z,89.13
2019-05-02T08:22:13.788Z,92.22
2019-05-02T08:24:44.345Z,90.95
2019-05-02T08:27:23.187Z,92.02
2019-05-02T08:29:53.838Z,96.20
2019-05-02T08:32:23.890Z,91.15
2019-05-02T08:34:54.004Z,83.15
2019-05-02T08:37:24.299Z,85.85
2019-05-02T08:39:54.280Z,83.52
2019-05-02T08:42:27.711Z,86.57
2019-05-02T08:44:56.502Z,89.32
2019-05-02T08:47:28.573Z,83.27
2019-05-02T08:49:59.273Z,81.70
2019-05-02T08:52:29.376Z,91.63
2019-05-02T08:54:59.515Z,95.62
2019-05-02T08:57:29.983Z,92.67
2019-05-02T09:00:01.508Z,84.67
2019-05-02T09:02:41.209Z,78.78
2019-05-02T09:05:04.581Z,72.15
2019-05-02T09:07:37.189Z,73.47
2019-05-02T09:10:11.555Z,77.67
2019-05-02T09:12:45.267Z,68.28
2019-05-02T09:15:13.377Z,70.80
2019-05-02T09:17:51.751Z,71.15
2019-05-02T09:20:19.930Z,71.62
2019-05-02T09:22:52.201Z,71.67
2019-05-02T09:25:19.348Z,70.60
2019-05-02T09:27:49.521Z,69.77
2019-05-02T09:30:22.827Z,66.12
2019-05-02T09:32:52.295Z,74.53
2019-05-02T09:35:23.073Z,68.42
2019-05-02T09:37:53.474Z,63.40
2019-05-02T09:40:23.498Z,62.55
2019-05-02T09:42:58.533Z,62.20
2019-05-02T09:45:35.470Z,61.55
2019-05-02T09:48:07.602Z,61.23
2019-05-02T09:53:05.105Z,61.77
2019-05-02T09:55:35.478Z,66.47
2019-05-02T09:58:05.679Z,62.83
2019-05-02T10:00:41.822Z,66.00
2019-05-02T10:03:12.199Z,56.95
2019-05-02T10:05:43.049Z,63.38
2019-05-02T10:08:13.982Z,55.98
2019-05-02T10:10:46.002Z,58.13
2019-05-02T10:13:16.348Z,58.05
2019-05-02T10:15:46.468Z,54.10
2019-05-02T10:18:19.664Z,62.05
2019-05-02T10:20:48.429Z,58.60
2019-05-02T10:23:20.747Z,62.38
2019-05-02T10:28:19.631Z,64.72
2019-05-02T10:30:52.594Z,59.90
2019-05-02T10:35:52.731Z,50.67
2019-05-02T10:38:22.894Z,55.10
2019-05-02T10:40:54.591Z,48.42
2019-05-02T10:43:24.740Z,51.50
2019-05-02T10:45:59.414Z,49.40
2019-05-02T10:48:29.504Z,52.30
2019-05-02T10:51:19.079Z,44.45
2019-05-02T10:53:52.597Z,62.55
2019-05-02T10:56:22.131Z,54.93
2019-05-02T10:58:52.374Z,63.33
2019-05-02T11:01:24.147Z,56.02
2019-05-02T11:04:04.870Z,53.75
2019-05-02T11:06:37.121Z,40.60
2019-05-02T11:09:09.663Z,49.53
2019-05-02T11:11:42.370Z,51.42
2019-05-02T11:14:16.369Z,57.43
2019-05-02T11:17:01.663Z,55.92
2019-05-02T11:19:45.113Z,58.13
2019-05-02T11:22:15.286Z,48.28
2019-05-02T11:24:45.515Z,47.65
2019-05-02T11:27:15.588Z,47.60
2019-05-02T11:29:45.727Z,48.40
2019-05-02T11:32:15.854Z,53.25
2019-05-02T11:34:45.929Z,56.85
2019-05-02T11:37:16.107Z,52.03
2019-05-02T11:39:51.844Z,43.90
2019-05-02T11:42:23.218Z,43.92
2019-05-02T11:44:49.754Z,56.25
2019-05-02T11:47:24.895Z,58.10
2019-05-02T11:49:55.737Z,57.85
2019-05-02T11:52:27.458Z,50.08
2019-05-02T11:54:55.044Z,53.45
2019-05-02T11:57:28.547Z,53.65
2019-05-02T11:59:59.512Z,58.15
2019-05-02T12:02:28.277Z,55.43
2019-05-02T12:04:58.392Z,58.20
2019-05-02T12:07:28.509Z,57.08
2019-05-02T12:09:58.537Z,57.75
2019-05-02T12:12:32.476Z,55.20
2019-05-02T12:15:02.398Z,57.50
2019-05-02T12:17:32.646Z,55.30
2019-05-02T12:20:02.962Z,46.98
2019-05-02T12:22:33.100Z,51.35
2019-05-02T12:25:03.102Z,57.20
2019-05-02T12:27:33.024Z,61.60
2019-05-02T12:30:03.454Z,55.43
2019-05-02T12:32:33.657Z,53.80
2019-05-02T12:35:04.422Z,57.50
2019-05-02T12:37:34.762Z,59.53
2019-05-02T12:40:06.115Z,64.45
2019-05-02T12:42:36.059Z,62.38
2019-05-02T12:45:07.955Z,62.55
2019-05-02T12:47:38.005Z,59.48
2019-05-02T12:50:08.674Z,60.70
2019-05-02T12:52:39.393Z,52.93
2019-05-02T12:55:09.937Z,54.58
2019-05-02T12:57:40.093Z,49.90
2019-05-02T13:00:12.732Z,50.60
2019-05-02T13:02:52.435Z,54.33
2019-05-02T13:05:22.340Z,49.67
2019-05-02T13:07:55.300Z,53.28
2019-05-02T13:10:35.680Z,51.25
2019-05-02T13:13:07.927Z,53.68
2019-05-02T13:15:38.035Z,50.33
2019-05-02T13:18:08.032Z,46.55
2019-05-02T13:20:39.207Z,57.55
2019-05-02T13:23:34.043Z,39.63
2019-05-02T13:26:02.472Z,42.48
2019-05-02T13:28:33.446Z,36.68
2019-05-02T13:31:05.664Z,35.85
2019-05-02T13:33:53.747Z,36.20
2019-05-02T13:36:44.745Z,34.15
2019-05-02T13:39:32.535Z,34.90
2019-05-02T13:42:02.512Z,37.03
2019-05-02T13:44:43.771Z,34.05
2019-05-02T13:47:15.490Z,27.95
2019-05-02T13:49:53.874Z,25.62
2019-05-02T13:52:19.468Z,29.30
2019-05-02T13:54:52.130Z,31.30
2019-05-02T13:57:22.170Z,31.10
2019-05-02T13:59:54.070Z,28.32
2019-05-02T14:02:42.628Z,30.40
2019-05-02T14:05:15.599Z,31.90
2019-05-02T14:07:48.380Z,36.98
2019-05-02T14:10:22.777Z,30.62
2019-05-02T14:12:54.486Z,31.12
2019-05-02T14:15:26.598Z,27.73
2019-05-02T14:17:57.263Z,36.98
2019-05-02T14:20:27.574Z,27.85
2019-05-02T14:22:58.079Z,31.52
2019-05-02T14:25:28.530Z,28.55
2019-05-02T14:27:58.902Z,31.15
2019-05-02T14:30:37.069Z,35.63
2019-05-02T14:33:03.174Z,31.23
2019-05-02T14:35:37.846Z,20.23
2019-05-02T14:38:08.946Z,19.62
2019-05-02T14:40:52.010Z,25.88
2019-05-02T14:43:46.146Z,31.77
2019-05-02T14:46:12.617Z,24.52
2019-05-02T14:48:45.205Z,24.00
2019-05-02T14:51:16.661Z,28.07
2019-05-02T14:53:48.671Z,28.80
2019-05-02T14:56:26.558Z,27.82
2019-05-02T14:58:57.136Z,31.90
2019-05-02T15:01:27.729Z,32.45
2019-05-02T15:04:03.187Z,29.30
2019-05-02T15:06:33.316Z,32.58
2019-05-02T15:09:02.799Z,29.77
2019-05-02T15:11:34.963Z,32.63
2019-05-02T15:14:05.084Z,33.15
2019-05-02T15:16:42.360Z,38.33
2019-05-02T15:21:46.911Z,31.90
2019-05-02T15:24:15.223Z,33.83
2019-05-02T15:26:45.685Z,34.73
2019-05-02T15:29:19.667Z,34.35
2019-05-02T15:34:57.841Z,32.73
2019-05-02T15:37:28.866Z,38.65
2019-05-02T15:42:32.280Z,34.38
2019-05-02T15:45:05.561Z,39.85
2019-05-02T15:47:37.096Z,34.67
2019-05-02T15:52:39.217Z,37.42
2019-05-02T15:55:11.485Z,31.95
2019-05-02T16:00:21.713Z,34.15
2019-05-02T16:02:46.659Z,37.65
2019-05-02T16:05:17.052Z,34.98
2019-05-02T16:07:47.599Z,32.78
2019-05-02T16:10:17.871Z,35.43
2019-05-02T16:12:49.732Z,36.45
2019-05-02T16:15:25.855Z,34.67
2019-05-02T16:20:27.602Z,35.58
2019-05-02T16:22:57.582Z,34.18
2019-05-02T16:26:05.884Z,38.85
2019-05-02T16:28:36.939Z,38.28
2019-05-02T16:31:10.138Z,35.35
2019-05-02T16:36:09.799Z,37.70
2019-05-02T16:38:40.308Z,39.53
2019-05-02T16:41:11.420Z,35.95
2019-05-02T16:43:42.072Z,32.17
2019-05-02T16:46:14.127Z,29.55
2019-05-02T16:48:44.199Z,26.45
2019-05-02T16:51:29.898Z,25.55
2019-05-02T16:53:46.454Z,29.00
2019-05-02T16:56:16.668Z,23.15
2019-05-02T16:58:47.296Z,21.45
2019-05-02T17:01:24.560Z,25.20
2019-05-02T17:03:49.951Z,26.40
2019-05-02T17:06:22.349Z,29.75
2019-05-02T17:09:02.208Z,25.08
2019-05-02T17:11:35.826Z,25.25
2019-05-02T17:14:07.167Z,26.85
2019-05-02T17:16:37.602Z,23.57
2019-05-02T17:19:08.043Z,21.75
2019-05-02T17:21:53.007Z,19.57
2019-05-02T17:24:10.393Z,24.30
2019-05-02T17:26:42.244Z,23.57
2019-05-02T17:29:16.332Z,20.12
2019-05-02T17:31:44.054Z,24.37
2019-05-02T17:34:14.918Z,20.15
2019-05-02T17:36:45.826Z,21.95
2019-05-02T17:39:18.739Z,19.62
2019-05-02T17:41:47.917Z,20.70
2019-05-02T17:44:22.226Z,22.02
2019-05-02T17:46:57.946Z,19.17
2019-05-02T17:49:23.841Z,19.90
2019-05-02T17:52:18.953Z,21.55
2019-05-02T17:54:42.434Z,17.67
2019-05-02T17:57:12.103Z,19.75
2019-05-02T17:59:42.529Z,19.20
2019-05-02T18:02:15.902Z,20.80
2019-05-02T18:04:46.590Z,22.20
2019-05-02T18:07:18.137Z,22.22
2019-05-02T18:09:47.649Z,21.52
2019-05-02T18:12:17.462Z,21.82
2019-05-02T18:14:53.074Z,24.60
2019-05-02T18:17:19.221Z,25.95
2019-05-02T18:19:49.243Z,28.38
2019-05-02T18:22:24.164Z,31.10
2019-05-02T18:24:52.676Z,28.30
2019-05-02T18:27:22.754Z,24.27
2019-05-02T18:29:52.359Z,25.95
2019-05-02T18:32:25.080Z,25.40
2019-05-02T18:34:56.869Z,24.02
2019-05-02T18:37:24.888Z,23.98
2019-05-02T18:39:56.031Z,20.95
2019-05-02T18:42:26.308Z,21.57
2019-05-02T18:44:56.029Z,19.62
2019-05-02T18:47:26.169Z,18.90
2019-05-02T18:50:04.278Z,17.70
2019-05-02T18:52:36.445Z,18.75
2019-05-02T18:55:01.632Z,15.58
2019-05-02T18:57:31.295Z,16.15
2019-05-02T19:00:02.006Z,18.02
2019-05-02T19:02:35.383Z,16.10
2019-05-02T19:05:06.147Z,18.10
2019-05-02T19:07:36.146Z,16.93
2019-05-02T19:10:08.444Z,16.17
2019-05-02T19:12:37.704Z,20.82
2019-05-02T19:15:07.371Z,18.15
2019-05-02T19:17:39.147Z,16.57
2019-05-02T19:20:29.662Z,16.37
2019-05-02T19:22:59.002Z,16.55
2019-05-02T19:25:28.396Z,15.75
2019-05-02T19:27:59.415Z,13.53
2019-05-02T19:30:32.626Z,14.43
2019-05-02T19:33:06.087Z,13.40
2019-05-02T19:35:37.624Z,12.55
2019-05-02T19:38:04.056Z,11.03
2019-05-02T19:40:33.331Z,9.63
2019-05-02T19:43:07.518Z,11.35
2019-05-02T19:45:33.536Z,9.60
2019-05-02T19:48:02.850Z,12.13
2019-05-02T19:50:39.230Z,6.75
2019-05-02T19:53:14.909Z,15.13
2019-05-02T19:55:37.149Z,8.58
2019-05-02T19:58:06.666Z,9.45
2019-05-02T20:00:41.121Z,7.97
2019-05-02T20:03:07.358Z,7.85
2019-05-02T20:05:39.286Z,7.78
2019-05-02T20:08:09.720Z,7.92
2019-05-02T20:10:39.087Z,9.10
2019-05-02T20:13:08.538Z,8.85
2019-05-02T20:15:39.448Z,8.65
2019-05-02T20:18:08.683Z,6.22
2019-05-02T20:21:03.950Z,8.03
2019-05-02T20:23:35.674Z,5.92
2019-05-02T20:26:09.518Z,7.55
2019-05-02T20:28:35.906Z,5.72
2019-05-02T20:31:05.126Z,5.03
2019-05-02T20:33:34.389Z,5.67
2019-05-02T20:36:03.750Z,5.25
2019-05-02T20:38:33.060Z,4.83
2019-05-02T20:41:02.933Z,7.22
2019-05-02T20:43:32.483Z,5.30
2019-05-02T20:46:02.647Z,4.75
2019-05-02T20:48:32.300Z,6.25
2019-05-02T20:51:02.766Z,5.37
2019-05-02T20:53:34.231Z,4.80
2019-05-02T20:56:03.056Z,5.25
2019-05-02T20:58:32.752Z,6.95
2019-05-02T21:01:08.172Z,7.47
2019-05-02T21:03:33.047Z,5.22
2019-05-02T21:06:09.808Z,6.25
2019-05-02T21:08:49.481Z,5.47
2019-05-02T21:11:18.941Z,4.75
2019-05-02T21:13:48.249Z,5.22
2019-05-02T21:16:17.557Z,7.00
2019-05-02T21:18:47.034Z,5.47
2019-05-02T21:21:16.528Z,7.50
2019-05-02T21:23:47.699Z,7.05
2019-05-02T21:26:17.097Z,5.17
2019-05-02T21:28:46.369Z,6.65
2019-05-02T21:31:15.774Z,7.35
2019-05-02T21:33:45.114Z,5.15
2019-05-02T21:36:14.715Z,6.28
2019-05-02T21:38:43.962Z,5.10
2019-05-02T21:41:13.111Z,5.50
2019-05-02T21:43:42.668Z,6.03
2019-05-02T21:46:11.906Z,5.62
2019-05-02T21:48:42.059Z,4.85
2019-05-02T21:51:13.256Z,5.08
2019-05-02T21:53:56.000Z,5.05
2019-05-02T21:56:25.522Z,6.92
2019-05-02T21:59:07.789Z,8.08
2019-05-02T22:01:42.217Z,6.53
2019-05-02T22:04:13.156Z,5.03
2019-05-02T22:06:42.847Z,6.17
2019-05-02T22:09:12.566Z,5.87
2019-05-02T22:11:43.015Z,6.55
2019-05-02T22:14:13.350Z,6.85
2019-05-02T22:16:42.973Z,6.60
2019-05-02T22:19:12.182Z,6.83
2019-05-02T22:21:43.164Z,8.65
2019-05-02T22:24:14.381Z,5.80
2019-05-02T22:26:43.641Z,6.50
2019-05-02T22:29:12.849Z,8.03
2019-05-02T22:31:43.087Z,9.35
2019-05-02T22:34:12.943Z,7.87
2019-05-02T22:36:43.238Z,7.95
2019-05-02T22:39:31.695Z,9.68
2019-05-02T22:42:01.967Z,6.72
2019-05-02T22:44:32.548Z,6.85
2019-05-02T22:47:01.832Z,6.90
2019-05-02T22:49:31.885Z,9.08
2019-05-02T22:52:01.467Z,9.40
2019-05-02T22:54:33.767Z,10.03
2019-05-02T22:57:02.575Z,11.15
2019-05-02T22:59:31.846Z,9.28
2019-05-02T23:02:02.156Z,7.55
2019-05-02T23:04:32.514Z,9.10
2019-05-02T23:07:02.445Z,14.60
2019-05-02T23:09:31.858Z,13.72
2019-05-02T23:12:02.881Z,11.12
2019-05-02T23:14:32.690Z,11.55
2019-05-02T23:17:02.218Z,11.63
2019-05-02T23:19:31.870Z,15.20
2019-05-02T23:22:02.142Z,14.78
2019-05-02T23:24:39.085Z,13.70
2019-05-02T23:27:22.399Z,13.40
2019-05-02T23:29:52.059Z,12.23
2019-05-02T23:32:23.674Z,12.47
2019-05-02T23:34:52.766Z,12.43
2019-05-02T23:37:21.999Z,13.50
2019-05-02T23:39:52.294Z,14.20
2019-05-02T23:42:21.979Z,14.10
2019-05-02T23:44:51.871Z,14.80
2019-05-02T23:47:22.446Z,15.03
2019-05-02T23:49:52.171Z,17.10
2019-05-02T23:52:22.457Z,16.12
2019-05-02T23:54:52.589Z,19.07
2019-05-02T23:57:22.977Z,17.35
2019-05-02T23:59:52.648Z,17.45
